Terminal Aerodrome Forecast
Issued by NWS Greer, SC

Home | Current Version | Previous Version | Text Only | Print | Product List | Glossary On
Versions: 1 2 3 4 5 6 7 8 9 10 11 12 13 14 15 16 17 18 19 20 21 22 23 24 25 26 27
000
FTUS42 KGSP 181256 AAA
TAFGSP
TAF AMD
KGSP 181256Z 1813/1912 VRB03KT P6SM OVC080
      TEMPO 1813/1814 FEW002
     FM181500 04006KT P6SM BKN050
     FM190500 08004KT 5SM BR OVC015
     FM190700 11010KT 4SM -SHRA BR OVC008=

USA.gov is the U.S. government's official web portal to all federal, state and local government web resources and services.